Time;durP1;ratioP1;P1;durP2;ratioP2;P2;SDS_P1;SDS_P2;PMS_P1;PMS_P2;Temp;Humidity;BMP_temperature;BMP_pressure;BME280_temperature;BME280_humidity;BME280_pressure;Samples;Min_cycle;Max_cycle;Signal;HPM_P1;HPM_P2
2022/08/01 00:00:24;;;;;;;2.08;1.30;;;23.00;70.40;;;;;;5074715;28;20044;-63
2022/08/01 00:02:50;;;;;;;1.58;1.15;;;22.90;70.30;;;;;;5073149;28;20049;-63
2022/08/01 00:05:15;;;;;;;2.10;1.20;;;22.90;70.30;;;;;;5074316;28;20119;-63
2022/08/01 00:07:41;;;;;;;2.63;1.08;;;22.90;70.40;;;;;;5074100;28;20055;-63
2022/08/01 00:10:09;;;;;;;2.78;1.13;;;22.90;70.40;;;;;;5071878;28;20048;-62
2022/08/01 00:12:34;;;;;;;2.85;1.42;;;23.00;70.40;;;;;;5074179;28;20080;-63
2022/08/01 00:15:00;;;;;;;2.10;1.17;;;22.90;70.30;;;;;;5073791;28;20072;-63
2022/08/01 00:17:25;;;;;;;2.15;1.00;;;22.90;70.30;;;;;;5073368;28;20045;-63
2022/08/01 00:19:51;;;;;;;2.63;1.10;;;22.90;70.30;;;;;;5073818;28;20444;-63
2022/08/01 00:22:17;;;;;;;2.20;1.00;;;22.90;70.20;;;;;;5074003;28;20044;-63
2022/08/01 00:24:42;;;;;;;1.90;1.10;;;22.90;70.20;;;;;;5073302;28;20055;-62
2022/08/01 00:27:08;;;;;;;2.65;1.00;;;22.90;70.20;;;;;;5074057;28;20083;-63
2022/08/01 00:29:33;;;;;;;3.15;1.05;;;22.90;70.20;;;;;;5073790;28;20087;-63
2022/08/01 00:31:59;;;;;;;1.88;1.30;;;22.90;70.20;;;;;;5073044;28;20040;-63
2022/08/01 00:34:24;;;;;;;2.03;1.10;;;22.90;70.20;;;;;;5072447;28;20127;-63
2022/08/01 00:36:50;;;;;;;1.77;0.82;;;22.90;70.20;;;;;;5073804;28;20072;-63
2022/08/01 00:39:15;;;;;;;1.45;0.85;;;22.90;70.20;;;;;;5072676;28;20127;-63
2022/08/01 00:41:41;;;;;;;3.55;1.27;;;22.90;70.20;;;;;;5073713;28;20463;-63
2022/08/01 00:44:06;;;;;;;1.80;1.00;;;22.90;70.20;;;;;;5071976;28;20052;-63
2022/08/01 00:46:32;;;;;;;2.25;1.20;;;22.90;70.20;;;;;;5072649;28;20044;-63
2022/08/01 00:48:58;;;;;;;1.75;0.90;;;22.90;70.20;;;;;;5073235;28;20041;-63
2022/08/01 00:51:24;;;;;;;2.40;0.95;;;22.80;70.20;;;;;;5073787;28;20384;-63
2022/08/01 00:53:50;;;;;;;2.53;1.00;;;22.80;70.20;;;;;;5071050;28;20495;-63
2022/08/01 00:56:16;;;;;;;2.35;0.98;;;22.90;70.20;;;;;;5073173;28;20044;-63
2022/08/01 00:58:42;;;;;;;1.60;1.00;;;22.90;70.20;;;;;;5054402;28;20598;-63
2022/08/01 01:01:08;;;;;;;3.15;1.02;;;22.90;70.20;;;;;;5071935;28;20041;-63
2022/08/01 01:03:33;;;;;;;2.08;1.00;;;22.90;70.10;;;;;;5073328;28;20044;-63
2022/08/01 01:06:22;;;;;;;2.42;1.10;;;22.80;70.10;;;;;;5072464;28;20186;-63
2022/08/01 01:09:23;;;;;;;2.10;1.05;;;22.80;70.00;;;;;;5071892;28;20041;-63
2022/08/01 01:12:01;;;;;;;2.08;0.90;;;22.80;70.00;;;;;;5071888;28;20056;-63
2022/08/01 01:14:32;;;;;;;;;;;22.80;70.00;;;;;;5072687;28;20045;-63
2022/08/01 01:16:58;;;;;;;1.85;0.90;;;22.80;69.90;;;;;;5071741;28;19973;-63
2022/08/01 01:19:24;;;;;;;1.80;0.98;;;22.80;70.10;;;;;;5071793;28;20049;-63
2022/08/01 01:22:21;;;;;;;2.90;0.90;;;22.80;70.10;;;;;;5070571;28;20392;-63
2022/08/01 01:25:17;;;;;;;3.35;1.25;;;22.80;70.00;;;;;;5064204;28;20056;-63
2022/08/01 01:28:02;;;;;;;1.35;0.90;;;22.80;70.00;;;;;;5071771;28;20076;-64
2022/08/01 01:30:29;;;;;;;1.50;0.88;;;22.80;70.60;;;;;;5072395;28;20051;-63
2022/08/01 01:32:55;;;;;;;2.10;1.13;;;22.80;70.00;;;;;;5071434;28;20044;-63
2022/08/01 01:35:25;;;;;;;1.90;1.00;;;22.80;70.00;;;;;;5072006;28;20066;-63
2022/08/01 01:37:56;;;;;;;1.77;1.00;;;22.80;70.00;;;;;;5071273;28;20041;-63
2022/08/01 01:40:21;;;;;;;2.28;0.98;;;22.80;69.90;;;;;;5071578;28;20048;-63
2022/08/01 01:42:47;;;;;;;1.63;0.93;;;22.80;69.90;;;;;;5069817;28;20050;-63
2022/08/01 01:45:13;;;;;;;2.63;1.10;;;22.80;69.90;;;;;;5071443;28;20036;-63
2022/08/01 01:47:38;;;;;;;1.95;0.95;;;22.80;69.90;;;;;;5071544;28;20076;-63
2022/08/01 01:50:06;;;;;;;1.73;0.85;;;22.80;69.90;;;;;;5070076;28;20059;-63
2022/08/01 01:52:31;;;;;;;2.15;0.80;;;22.80;69.90;;;;;;5071543;28;20055;-64
2022/08/01 01:54:57;;;;;;;1.63;0.90;;;22.80;69.90;;;;;;5071502;28;20032;-63
2022/08/01 01:57:22;;;;;;;1.80;0.80;;;22.80;69.90;;;;;;5072432;28;20306;-63
2022/08/01 01:59:48;;;;;;;1.90;0.88;;;22.80;69.80;;;;;;5070660;28;20052;-63
2022/08/01 02:02:15;;;;;;;1.58;1.00;;;22.80;69.80;;;;;;5068141;28;20394;-63
2022/08/01 02:04:42;;;;;;;1.80;1.00;;;22.80;69.90;;;;;;5054502;28;20393;-63
2022/08/01 02:07:08;;;;;;;1.77;0.90;;;22.80;69.80;;;;;;5072513;28;20047;-63
2022/08/01 02:09:34;;;;;;;1.50;0.85;;;22.80;69.90;;;;;;5071033;28;20047;-63
2022/08/01 02:11:59;;;;;;;2.95;1.10;;;22.80;69.90;;;;;;5074951;28;20041;-63
2022/08/01 02:14:26;;;;;;;2.05;0.85;;;22.80;69.80;;;;;;5076574;28;20036;-63
2022/08/01 02:16:52;;;;;;;1.50;0.85;;;22.70;69.70;;;;;;5057644;28;20540;-63
2022/08/01 02:19:19;;;;;;;3.33;1.13;;;22.70;69.80;;;;;;5058385;28;20051;-60
2022/08/01 02:21:49;;;;;;;2.08;1.05;;;22.70;69.70;;;;;;5074899;28;20512;-60
2022/08/01 02:24:43;;;;;;;3.55;1.10;;;22.80;69.80;;;;;;5075415;28;20098;-61
2022/08/01 02:27:12;;;;;;;1.17;0.90;;;22.70;69.70;;;;;;5072218;28;20584;-61
2022/08/01 02:29:48;;;;;;;1.80;1.10;;;22.70;69.70;;;;;;5057954;28;20127;-60
2022/08/01 02:32:22;;;;;;;2.20;1.10;;;22.80;69.80;;;;;;5074221;28;20048;-60
2022/08/01 02:34:47;;;;;;;2.03;0.90;;;22.70;69.70;;;;;;5074890;28;20043;-60
2022/08/01 02:37:13;;;;;;;1.45;0.80;;;22.70;69.70;;;;;;5075476;28;20044;-60
2022/08/01 02:39:38;;;;;;;2.22;1.10;;;22.70;69.70;;;;;;5074866;28;20049;-60
2022/08/01 02:42:06;;;;;;;1.83;0.80;;;22.70;69.70;;;;;;5074592;28;20426;-60
2022/08/01 02:44:34;;;;;;;2.42;1.05;;;22.70;69.70;;;;;;5075392;28;20048;-60
2022/08/01 02:47:02;;;;;;;1.55;0.90;;;22.70;69.70;;;;;;5074345;28;20135;-60
2022/08/01 02:49:29;;;;;;;1.70;0.90;;;22.70;69.70;;;;;;5074534;28;20081;-60
2022/08/01 02:51:55;;;;;;;1.63;0.95;;;22.70;70.30;;;;;;5073596;28;20049;-60
2022/08/01 02:54:21;;;;;;;1.50;1.10;;;22.70;69.70;;;;;;5075556;28;20388;-61
2022/08/01 02:56:46;;;;;;;1.45;0.80;;;22.70;69.70;;;;;;5074324;28;20499;-61
2022/08/01 02:59:17;;;;;;;2.45;1.27;;;22.70;69.70;;;;;;5073520;28;20056;-60
2022/08/01 03:01:43;;;;;;;1.42;0.88;;;22.70;69.70;;;;;;5075344;28;20055;-61
2022/08/01 03:04:08;;;;;;;3.15;1.10;;;22.70;69.70;;;;;;5074438;28;20033;-60
2022/08/01 03:06:34;;;;;;;1.40;0.80;;;22.70;69.70;;;;;;5073462;28;20403;-60
2022/08/01 03:09:03;;;;;;;1.38;0.70;;;22.70;69.60;;;;;;5075129;28;20047;-60
2022/08/01 03:11:29;;;;;;;2.05;1.13;;;22.70;69.60;;;;;;5074271;28;20040;-61
2022/08/01 03:13:55;;;;;;;2.00;0.82;;;22.70;69.60;;;;;;5073347;28;20048;-60
2022/08/01 03:16:21;;;;;;;1.85;0.80;;;22.70;69.60;;;;;;5074010;28;20050;-61
2022/08/01 03:18:47;;;;;;;1.70;0.73;;;22.70;69.60;;;;;;5057007;28;20056;-61
2022/08/01 03:21:13;;;;;;;1.63;1.00;;;22.70;69.60;;;;;;5073060;28;20040;-60
2022/08/01 03:23:39;;;;;;;1.90;0.90;;;22.70;69.60;;;;;;5074059;28;20051;-60
2022/08/01 03:26:05;;;;;;;1.55;0.82;;;22.70;69.60;;;;;;5073837;28;20079;-60
2022/08/01 03:28:31;;;;;;;2.72;1.00;;;22.70;69.60;;;;;;5074074;28;20095;-60
2022/08/01 03:30:58;;;;;;;1.60;0.90;;;22.70;69.60;;;;;;5056812;28;20449;-60
2022/08/01 03:33:24;;;;;;;2.15;0.90;;;22.60;70.10;;;;;;5072968;28;20056;-60
2022/08/01 03:35:53;;;;;;;1.30;0.85;;;22.70;69.60;;;;;;5074884;28;20132;-60
2022/08/01 03:38:22;;;;;;;1.45;0.80;;;22.70;69.60;;;;;;5073421;28;20045;-60
2022/08/01 03:40:56;;;;;;;1.42;0.73;;;22.70;69.60;;;;;;5072717;28;20044;-60
2022/08/01 03:43:35;;;;;;;1.20;0.80;;;22.60;69.50;;;;;;5074919;28;20047;-60
2022/08/01 03:46:07;;;;;;;1.85;0.90;;;22.70;69.50;;;;;;5073368;28;20043;-60
2022/08/01 03:48:33;;;;;;;2.03;1.00;;;22.60;69.50;;;;;;5072793;28;20044;-60
2022/08/01 03:50:59;;;;;;;1.25;0.82;;;22.70;69.60;;;;;;5072984;28;20049;-60
2022/08/01 03:53:27;;;;;;;2.25;1.00;;;22.70;69.50;;;;;;5073583;28;20114;-61
2022/08/01 03:55:52;;;;;;;1.08;0.70;;;22.60;69.40;;;;;;5072544;28;20161;-60
2022/08/01 03:58:18;;;;;;;2.05;0.77;;;22.60;69.40;;;;;;5073345;28;20063;-60
2022/08/01 04:00:44;;;;;;;2.45;0.90;;;22.60;69.40;;;;;;5069753;28;20066;-61
2022/08/01 04:03:10;;;;;;;1.50;0.80;;;22.60;69.40;;;;;;5060004;28;20384;-60
2022/08/01 04:05:35;;;;;;;1.60;0.88;;;22.60;69.40;;;;;;5073701;28;20041;-61
2022/08/01 04:08:02;;;;;;;1.27;0.90;;;22.60;69.40;;;;;;5072758;28;20055;-61
2022/08/01 04:10:28;;;;;;;1.13;0.70;;;22.60;69.40;;;;;;5073381;28;20400;-60
2022/08/01 04:12:53;;;;;;;1.23;0.70;;;22.60;69.40;;;;;;5073597;28;20044;-60
2022/08/01 04:15:20;;;;;;;1.58;0.93;;;22.60;69.40;;;;;;5073993;28;20036;-62
2022/08/01 04:17:45;;;;;;;1.23;0.82;;;22.60;69.30;;;;;;5073038;28;20500;-60
2022/08/01 04:20:11;;;;;;;1.27;0.70;;;22.60;69.30;;;;;;5074329;28;20055;-61
2022/08/01 04:22:36;;;;;;;2.17;0.88;;;22.60;69.30;;;;;;5072113;28;20113;-61
2022/08/01 04:25:04;;;;;;;1.80;0.80;;;22.60;69.30;;;;;;5073775;28;20072;-60
2022/08/01 04:27:31;;;;;;;1.80;0.80;;;22.60;69.30;;;;;;5073622;28;20116;-61
2022/08/01 04:29:58;;;;;;;1.40;0.88;;;22.60;69.30;;;;;;5071690;28;20052;-60
2022/08/01 04:32:24;;;;;;;1.63;0.80;;;22.60;69.30;;;;;;5072321;28;20127;-61
2022/08/01 04:34:49;;;;;;;0.98;0.80;;;22.60;69.30;;;;;;5073854;28;20131;-60
2022/08/01 04:37:16;;;;;;;1.40;0.80;;;22.60;69.30;;;;;;5072074;28;20119;-60
2022/08/01 04:39:42;;;;;;;1.58;0.85;;;22.60;69.30;;;;;;5072848;28;20125;-61
2022/08/01 04:42:07;;;;;;;1.55;0.80;;;22.60;69.30;;;;;;5072375;28;20079;-61
2022/08/01 04:44:33;;;;;;;1.73;0.80;;;22.60;69.20;;;;;;5071749;28;20056;-60
2022/08/01 04:46:59;;;;;;;1.50;1.00;;;22.60;69.20;;;;;;5055709;28;20058;-60
2022/08/01 04:49:24;;;;;;;2.55;0.90;;;22.60;69.30;;;;;;5072580;28;20128;-60
2022/08/01 04:51:51;;;;;;;2.03;0.82;;;22.60;69.20;;;;;;5072314;28;20131;-60
2022/08/01 04:54:17;;;;;;;1.35;0.90;;;22.50;69.20;;;;;;5073395;28;20068;-61
2022/08/01 04:56:42;;;;;;;1.63;0.60;;;22.60;69.20;;;;;;5071971;28;20090;-60
2022/08/01 05:01:52;;;;;;;0.98;0.70;;;22.60;69.20;;;;;;5073275;28;20539;-60
2022/08/01 05:04:18;;;;;;;1.23;0.75;;;22.60;69.20;;;;;;5073303;28;20131;-60
2022/08/01 05:06:43;;;;;;;1.20;0.70;;;22.50;69.10;;;;;;5072529;28;20044;-60
2022/08/01 05:09:09;;;;;;;1.23;0.70;;;22.60;69.10;;;;;;5073079;28;20400;-61
2022/08/01 05:11:35;;;;;;;1.10;0.70;;;22.60;69.10;;;;;;5071772;28;20045;-60
2022/08/01 05:14:00;;;;;;;2.08;0.75;;;22.60;69.20;;;;;;5071760;28;20098;-60
2022/08/01 05:16:26;;;;;;;1.92;0.82;;;22.50;69.10;;;;;;5073225;28;20040;-61
2022/08/01 05:18:51;;;;;;;1.27;0.73;;;22.50;69.10;;;;;;5071021;28;20472;-60
2022/08/01 05:21:17;;;;;;;1.23;0.70;;;22.60;69.10;;;;;;5072955;28;20032;-60
2022/08/01 05:23:42;;;;;;;1.67;0.82;;;22.60;69.10;;;;;;5072633;28;20051;-60
2022/08/01 05:26:09;;;;;;;2.03;0.77;;;22.50;69.00;;;;;;5072291;28;20094;-60
2022/08/01 05:28:35;;;;;;;1.80;0.70;;;22.50;69.00;;;;;;5072629;28;20087;-60
2022/08/01 05:31:00;;;;;;;1.75;0.73;;;22.60;69.00;;;;;;5072859;28;20084;-60
2022/08/01 05:33:26;;;;;;;1.20;0.85;;;22.50;69.00;;;;;;5072365;28;20044;-60
2022/08/01 05:35:51;;;;;;;0.90;0.57;;;22.50;69.00;;;;;;5072667;28;20051;-60
2022/08/01 05:38:17;;;;;;;1.92;0.80;;;22.60;69.10;;;;;;5072988;28;20044;-60
2022/08/01 05:40:42;;;;;;;1.75;0.82;;;22.50;69.00;;;;;;5071625;28;20032;-60
2022/08/01 05:43:08;;;;;;;1.20;0.70;;;22.50;69.00;;;;;;5071421;28;20044;-60
2022/08/01 05:45:33;;;;;;;1.00;0.50;;;22.50;69.00;;;;;;5071915;28;20040;-60
2022/08/01 05:47:59;;;;;;;1.40;0.80;;;22.50;69.00;;;;;;5071897;28;20127;-60
2022/08/01 05:50:24;;;;;;;2.42;0.75;;;22.50;69.00;;;;;;5072630;28;20131;-61
2022/08/01 05:52:50;;;;;;;1.20;0.70;;;22.50;69.00;;;;;;5071097;28;20135;-60
2022/08/01 05:55:16;;;;;;;1.30;0.88;;;22.50;69.00;;;;;;5072040;28;20132;-60
2022/08/01 05:57:41;;;;;;;1.90;0.75;;;22.50;69.00;;;;;;5071103;28;20032;-60
2022/08/01 06:00:07;;;;;;;0.80;0.60;;;22.50;68.90;;;;;;5072186;28;20040;-61
2022/08/01 06:02:33;;;;;;;2.15;0.60;;;22.50;69.00;;;;;;5071624;28;20477;-61
2022/08/01 06:04:58;;;;;;;1.20;0.70;;;22.50;69.00;;;;;;5072172;28;20047;-60
2022/08/01 06:07:24;;;;;;;2.10;0.88;;;22.50;69.00;;;;;;5071033;28;20119;-62
2022/08/01 06:09:50;;;;;;;1.77;0.80;;;22.50;69.00;;;;;;5070343;28;20044;-61
2022/08/01 06:12:15;;;;;;;2.28;0.70;;;22.50;69.10;;;;;;5072249;28;20040;-62
2022/08/01 06:14:41;;;;;;;1.92;0.85;;;22.50;69.10;;;;;;5072232;28;20048;-61
2022/08/01 06:17:06;;;;;;;2.50;0.68;;;22.50;69.10;;;;;;5071029;28;20041;-61
2022/08/01 06:19:32;;;;;;;1.77;0.77;;;22.50;69.20;;;;;;5072218;28;20048;-61
2022/08/01 06:21:57;;;;;;;1.20;0.70;;;22.50;69.20;;;;;;5071034;28;20045;-61
2022/08/01 06:24:23;;;;;;;4.50;0.73;;;22.50;69.30;;;;;;5070375;28;20090;-61
2022/08/01 06:26:49;;;;;;;2.63;0.70;;;22.50;69.30;;;;;;5070757;28;20487;-61
2022/08/01 06:29:15;;;;;;;4.10;1.10;;;22.60;69.30;;;;;;5071174;28;20123;-61
2022/08/01 06:31:40;;;;;;;0.90;0.60;;;22.60;69.30;;;;;;5072314;28;20060;-61
2022/08/01 06:34:06;;;;;;;4.78;0.75;;;22.60;69.30;;;;;;5072158;28;20437;-61
2022/08/01 06:36:31;;;;;;;4.18;1.15;;;22.60;69.40;;;;;;5071508;28;20906;-61
2022/08/01 06:38:57;;;;;;;3.60;0.85;;;22.60;69.60;;;;;;5071660;28;20079;-62
2022/08/01 06:41:23;;;;;;;3.17;1.10;;;22.60;69.80;;;;;;5070048;28;20051;-63
2022/08/01 06:43:48;;;;;;;2.80;0.90;;;22.60;69.80;;;;;;5070827;28;20048;-61
2022/08/01 06:46:14;;;;;;;2.47;0.77;;;22.70;69.90;;;;;;5071972;28;20044;-62
2022/08/01 06:48:39;;;;;;;1.33;0.70;;;22.70;70.00;;;;;;5071541;28;20072;-61
2022/08/01 06:51:08;;;;;;;2.50;0.90;;;22.70;70.00;;;;;;5070964;28;20052;-62
2022/08/01 06:53:35;;;;;;;2.42;0.90;;;22.70;70.00;;;;;;5072131;28;20040;-62
2022/08/01 06:56:01;;;;;;;5.40;1.02;;;22.70;70.00;;;;;;5071549;28;20049;-62
2022/08/01 06:58:26;;;;;;;2.60;0.80;;;22.70;70.10;;;;;;5074939;28;20045;-62
2022/08/01 07:00:52;;;;;;;4.55;1.58;;;22.70;70.10;;;;;;5075467;28;20040;-62
2022/08/01 07:03:17;;;;;;;5.53;1.35;;;22.70;70.20;;;;;;5075557;28;20048;-62
2022/08/01 07:05:43;;;;;;;4.82;0.85;;;22.70;70.20;;;;;;5074737;28;20048;-62
2022/08/01 07:08:08;;;;;;;2.80;0.85;;;22.80;70.20;;;;;;5074024;28;20040;-62
2022/08/01 07:10:34;;;;;;;2.97;0.80;;;22.70;70.20;;;;;;5075222;28;20048;-62
2022/08/01 07:12:59;;;;;;;4.07;0.95;;;22.80;70.20;;;;;;5074588;28;20048;-63
2022/08/01 07:15:26;;;;;;;4.75;1.00;;;22.80;70.20;;;;;;5075511;28;20050;-63
2022/08/01 07:17:52;;;;;;;3.58;1.20;;;22.70;70.00;;;;;;5073559;28;20076;-62
2022/08/01 07:20:17;;;;;;;3.33;1.00;;;22.80;70.10;;;;;;5074689;28;20079;-62
2022/08/01 07:22:43;;;;;;;2.55;0.85;;;22.80;70.10;;;;;;5074864;28;20484;-62
2022/08/01 07:25:08;;;;;;;4.15;1.02;;;22.80;70.10;;;;;;5075158;28;20513;-61
2022/08/01 07:27:34;;;;;;;2.90;1.10;;;22.80;70.10;;;;;;5074107;28;20139;-62
2022/08/01 07:30:00;;;;;;;1.98;0.90;;;22.80;70.10;;;;;;5073408;28;20061;-62
2022/08/01 07:32:25;;;;;;;3.53;0.88;;;22.90;70.20;;;;;;5075101;28;20518;-62
2022/08/01 07:34:51;;;;;;;2.85;0.82;;;22.90;70.10;;;;;;5074109;28;20047;-62
2022/08/01 07:37:17;;;;;;;4.32;1.00;;;22.90;70.20;;;;;;5074851;28;20127;-62
2022/08/01 07:39:42;;;;;;;3.20;0.85;;;22.90;70.20;;;;;;5073025;28;20057;-62
2022/08/01 07:42:08;;;;;;;2.63;0.80;;;22.90;70.10;;;;;;5074136;28;20072;-62
2022/08/01 07:44:34;;;;;;;3.72;0.90;;;22.90;70.10;;;;;;5073371;28;20048;-61
2022/08/01 07:46:59;;;;;;;3.58;1.00;;;22.90;70.00;;;;;;5071965;28;20041;-61
2022/08/01 07:49:25;;;;;;;4.88;1.02;;;22.90;70.00;;;;;;5074640;28;20041;-62
2022/08/01 07:51:50;;;;;;;3.28;1.13;;;22.90;69.90;;;;;;5074443;28;20062;-62
2022/08/01 07:54:16;;;;;;;5.07;1.05;;;23.00;70.00;;;;;;5073772;28;20056;-61
2022/08/01 07:56:41;;;;;;;4.53;0.90;;;23.00;70.00;;;;;;5073282;28;20044;-62
2022/08/01 07:59:07;;;;;;;3.28;0.93;;;22.90;69.80;;;;;;5073013;28;20093;-61
2022/08/01 08:01:32;;;;;;;4.82;1.00;;;23.00;69.90;;;;;;5073859;28;20090;-62
2022/08/01 08:03:58;;;;;;;3.97;1.00;;;22.90;69.80;;;;;;5074147;28;20048;-64
2022/08/01 08:06:24;;;;;;;6.68;1.00;;;22.90;69.70;;;;;;5073402;28;20032;-62
2022/08/01 08:08:49;;;;;;;5.38;1.00;;;22.90;69.70;;;;;;5072185;28;20045;-62
2022/08/01 08:11:15;;;;;;;5.13;1.20;;;22.90;69.70;;;;;;5074325;28;20040;-62
2022/08/01 08:13:40;;;;;;;10.40;1.20;;;22.90;69.80;;;;;;5074528;28;20404;-62
2022/08/01 08:16:06;;;;;;;6.80;1.35;;;22.90;69.80;;;;;;5073350;28;20095;-61
2022/08/01 08:18:31;;;;;;;8.35;1.00;;;22.90;69.80;;;;;;5074234;28;20551;-62
2022/08/01 08:20:57;;;;;;;8.45;1.75;;;23.00;69.80;;;;;;5073794;28;20483;-63
2022/08/01 08:26:06;;;;;;;7.25;1.50;;;22.90;69.70;;;;;;5073396;28;20056;-64
2022/08/01 08:28:32;;;;;;;9.35;1.20;;;22.90;69.70;;;;;;5073352;28;20056;-63
2022/08/01 08:30:57;;;;;;;11.32;1.73;;;22.90;69.70;;;;;;5072655;28;20045;-64
2022/08/01 08:33:23;;;;;;;5.55;1.33;;;22.90;69.70;;;;;;5073697;28;20127;-62
2022/08/01 08:35:49;;;;;;;6.78;1.17;;;23.00;69.70;;;;;;5072792;28;20076;-62
2022/08/01 08:38:14;;;;;;;6.43;1.50;;;23.00;69.60;;;;;;5072780;28;20044;-62
2022/08/01 08:40:40;;;;;;;8.48;1.25;;;23.00;69.50;;;;;;5072046;28;20406;-63
2022/08/01 08:43:06;;;;;;;5.60;1.38;;;23.00;69.50;;;;;;5071129;28;20469;-62
2022/08/01 08:45:32;;;;;;;9.70;1.80;;;23.00;69.40;;;;;;5073611;28;20044;-62
2022/08/01 08:47:57;;;;;;;5.50;1.17;;;23.00;69.40;;;;;;5088869;28;20446;-62
2022/08/01 08:50:24;;;;;;;10.93;2.53;;;23.00;69.40;;;;;;5071702;28;20040;-63
2022/08/01 08:52:50;;;;;;;12.88;2.08;;;23.00;69.40;;;;;;5073066;28;20464;-63
2022/08/01 08:55:16;;;;;;;10.90;2.67;;;23.00;69.40;;;;;;5072386;28;20048;-62
2022/08/01 08:57:42;;;;;;;8.32;1.88;;;23.00;69.40;;;;;;5072687;28;20131;-62
2022/08/01 09:00:09;;;;;;;11.88;2.90;;;23.00;69.50;;;;;;5072057;28;20052;-62
2022/08/01 09:02:35;;;;;;;7.82;2.10;;;23.00;69.50;;;;;;5072000;28;20044;-63
2022/08/01 09:05:00;;;;;;;10.65;2.40;;;23.00;69.30;;;;;;5054352;28;20044;-62
2022/08/01 09:07:26;;;;;;;10.35;2.78;;;23.00;69.20;;;;;;5072031;28;20045;-64
2022/08/01 09:09:52;;;;;;;8.68;1.75;;;23.00;69.10;;;;;;5073120;28;20041;-63
2022/08/01 09:12:18;;;;;;;9.32;2.50;;;23.00;68.90;;;;;;5072283;28;20067;-67
2022/08/01 09:14:45;;;;;;;11.15;2.50;;;23.00;68.80;;;;;;5071469;28;20036;-67
2022/08/01 09:17:12;;;;;;;11.20;2.40;;;23.00;68.70;;;;;;5073271;28;20048;-64
2022/08/01 09:19:47;;;;;;;16.38;3.42;;;23.00;68.60;;;;;;5072096;28;20047;-69
2022/08/01 09:22:17;;;;;;;12.25;2.25;;;23.00;68.60;;;;;;5073052;28;20159;-68
2022/08/01 09:24:56;;;;;;;13.23;2.97;;;23.10;68.60;;;;;;5072641;28;20052;-67
2022/08/01 09:27:25;;;;;;;8.50;2.75;;;23.10;68.60;;;;;;5056247;28;20044;-69
2022/08/01 09:29:53;;;;;;;15.80;2.55;;;23.00;68.60;;;;;;5071109;28;20056;-68
2022/08/01 09:32:20;;;;;;;12.63;2.58;;;23.10;68.70;;;;;;5054025;28;20136;-68
2022/08/01 09:34:48;;;;;;;11.95;2.33;;;23.10;68.70;;;;;;5072822;28;20036;-68
2022/08/01 09:37:17;;;;;;;10.70;2.03;;;23.10;68.60;;;;;;5071933;28;20068;-68
2022/08/01 09:39:45;;;;;;;11.13;2.72;;;23.10;68.50;;;;;;5071802;28;20048;-67
2022/08/01 09:42:24;;;;;;;14.77;3.13;;;23.10;68.40;;;;;;5072925;28;20173;-68
2022/08/01 09:44:50;;;;;;;9.55;2.65;;;23.10;68.20;;;;;;5071285;28;20302;-70
2022/08/01 09:47:16;;;;;;;12.57;2.78;;;23.20;68.10;;;;;;5071877;28;20051;-71
2022/08/01 09:49:42;;;;;;;8.13;2.50;;;23.20;67.90;;;;;;5071669;28;20049;-75
2022/08/01 09:52:12;;;;;;;11.05;2.00;;;23.20;67.90;;;;;;5071730;28;20044;-70
2022/08/01 09:54:38;;;;;;;13.40;2.72;;;23.20;68.00;;;;;;5071100;28;20046;-72
2022/08/01 09:57:14;;;;;;;13.35;2.53;;;23.20;68.10;;;;;;5054241;28;20040;-74
2022/08/01 09:59:43;;;;;;;9.55;2.22;;;23.20;68.10;;;;;;5091489;28;20119;-69
2022/08/01 10:02:12;;;;;;;10.75;1.90;;;23.20;68.40;;;;;;5091864;28;20036;-71
2022/08/01 10:04:45;;;;;;;10.90;2.30;;;23.20;68.50;;;;;;5090971;28;20048;-71
2022/08/01 10:07:10;;;;;;;12.20;1.90;;;23.20;68.70;;;;;;5058420;28;20045;-70
2022/08/01 10:09:36;;;;;;;11.07;2.42;;;23.30;68.80;;;;;;5091842;28;20060;-69
2022/08/01 10:12:02;;;;;;;11.20;1.75;;;23.30;68.70;;;;;;5090808;28;20044;-69
2022/08/01 10:14:28;;;;;;;13.85;3.40;;;23.30;68.70;;;;;;5091748;28;20044;-68
2022/08/01 10:16:55;;;;;;;13.75;2.55;;;23.30;68.80;;;;;;5090642;28;20044;-69
2022/08/01 10:19:22;;;;;;;15.13;3.05;;;23.30;68.70;;;;;;5090862;28;20411;-68
2022/08/01 10:21:50;;;;;;;14.45;2.20;;;23.30;68.60;;;;;;5090364;28;20058;-70
2022/08/01 10:24:15;;;;;;;11.23;1.92;;;23.30;68.60;;;;;;5070616;28;20055;-69
2022/08/01 10:26:41;;;;;;;9.23;2.42;;;23.30;68.60;;;;;;5070176;28;20161;-66
2022/08/01 10:29:06;;;;;;;10.25;2.20;;;23.30;68.60;;;;;;5069587;28;20060;-66
2022/08/01 10:31:32;;;;;;;12.15;2.05;;;23.30;68.50;;;;;;5055974;28;20052;-66
2022/08/01 10:33:59;;;;;;;9.50;1.88;;;23.30;68.40;;;;;;5057889;28;20052;-66
2022/08/01 10:36:24;;;;;;;10.68;2.10;;;23.40;68.40;;;;;;5072552;28;20085;-69
2022/08/01 10:38:50;;;;;;;7.50;2.10;;;23.40;68.30;;;;;;5072472;28;20142;-69
2022/08/01 10:41:15;;;;;;;9.63;1.77;;;23.40;68.10;;;;;;5072627;28;20051;-69
2022/08/01 10:43:42;;;;;;;6.97;1.77;;;23.40;67.90;;;;;;5073184;28;20068;-69
2022/08/01 10:46:07;;;;;;;8.32;1.92;;;23.40;67.80;;;;;;5074914;28;20078;-68
2022/08/01 10:49:20;;;;;;;7.88;1.98;;;23.50;67.80;;;;;;5057952;28;20052;-68
2022/08/01 10:51:46;;;;;;;9.48;1.80;;;23.40;67.70;;;;;;5081665;28;20125;-68
2022/08/01 10:54:12;;;;;;;9.27;1.60;;;23.40;67.70;;;;;;5058111;28;20483;-69
2022/08/01 10:56:50;;;;;;;5.45;1.60;;;23.40;67.60;;;;;;5073778;28;20550;-68
2022/08/01 10:59:26;;;;;;;5.30;1.63;;;23.50;67.70;;;;;;5075648;28;20087;-69
2022/08/01 11:02:03;;;;;;;7.28;1.92;;;23.50;67.70;;;;;;5075136;28;20404;-69
2022/08/01 11:04:49;;;;;;;8.48;1.45;;;23.50;67.50;;;;;;5075109;28;20070;-68
2022/08/01 11:07:20;;;;;;;8.52;1.40;;;23.50;67.40;;;;;;5090907;28;20049;-68
2022/08/01 11:09:47;;;;;;;7.95;2.35;;;23.40;67.20;;;;;;5074242;28;20040;-69
2022/08/01 11:12:17;;;;;;;7.30;1.73;;;23.40;66.80;;;;;;5074638;28;20040;-68
2022/08/01 11:15:00;;;;;;;6.10;1.70;;;23.40;66.50;;;;;;5057654;28;20072;-68
2022/08/01 11:17:47;;;;;;;5.50;1.55;;;23.40;66.10;;;;;;5074299;28;20048;-67
2022/08/01 11:20:29;;;;;;;5.85;1.40;;;23.40;65.60;;;;;;5074143;28;20048;-64
2022/08/01 11:23:01;;;;;;;8.30;1.83;;;23.40;65.20;;;;;;5074875;28;20062;-67
2022/08/01 11:25:36;;;;;;;6.38;1.40;;;23.30;64.50;;;;;;5074868;28;20056;-66
2022/08/01 11:28:13;;;;;;;10.00;1.52;;;23.30;63.80;;;;;;5074638;28;20044;-66
2022/08/01 11:30:39;;;;;;;;;;;23.30;63.10;;;;;;5074296;28;20139;-66
2022/08/01 11:33:06;;;;;;;10.05;1.70;;;23.30;63.10;;;;;;5072797;28;19971;-67
2022/08/01 11:35:32;;;;;;;7.97;1.55;;;23.30;63.50;;;;;;5074052;28;20044;-66
2022/08/01 11:38:02;;;;;;;6.40;1.10;;;23.30;63.20;;;;;;5073652;28;20045;-66
2022/08/01 11:40:28;;;;;;;8.25;1.40;;;23.30;63.00;;;;;;5056024;28;20054;-66
2022/08/01 11:43:16;;;;;;;8.65;1.33;;;23.30;62.80;;;;;;5071876;28;20044;-66
2022/08/01 11:45:57;;;;;;;4.38;1.33;;;23.30;62.70;;;;;;5074333;28;20055;-66
2022/08/01 11:48:24;;;;;;;7.57;1.10;;;23.30;62.70;;;;;;5073509;28;20373;-66
2022/08/01 11:50:51;;;;;;;5.18;1.35;;;23.30;62.80;;;;;;5074612;28;20044;-66
2022/08/01 11:53:18;;;;;;;6.03;1.33;;;23.30;62.90;;;;;;5073989;28;20052;-66
2022/08/01 11:55:51;;;;;;;6.60;1.10;;;23.30;62.90;;;;;;5073039;28;20037;-67
2022/08/01 11:58:21;;;;;;;4.70;1.17;;;23.30;62.90;;;;;;5073251;28;20135;-65
2022/08/01 12:00:57;;;;;;;5.82;1.13;;;23.30;62.90;;;;;;5055431;28;20411;-66
2022/08/01 12:03:30;;;;;;;8.93;1.30;;;23.40;63.40;;;;;;5073268;28;20068;-66
2022/08/01 12:05:56;;;;;;;7.53;1.30;;;23.30;62.70;;;;;;5074438;28;20047;-66
2022/08/01 12:08:29;;;;;;;4.40;1.27;;;23.40;62.70;;;;;;5072437;28;20083;-66
2022/08/01 12:10:55;;;;;;;6.68;1.25;;;23.40;62.70;;;;;;5074167;28;20067;-67
2022/08/01 12:13:21;;;;;;;4.15;1.15;;;23.40;62.70;;;;;;5056470;28;20044;-66
2022/08/01 12:15:47;;;;;;;5.05;1.10;;;23.40;62.70;;;;;;5073342;28;20044;-65
2022/08/01 12:18:12;;;;;;;7.63;1.52;;;23.40;62.80;;;;;;5072860;28;20024;-66
2022/08/01 12:20:39;;;;;;;6.38;1.00;;;23.40;62.80;;;;;;5072893;28;20048;-65
2022/08/01 12:23:07;;;;;;;7.30;1.40;;;23.40;63.50;;;;;;5073214;28;20128;-66
2022/08/01 12:25:33;;;;;;;4.80;1.08;;;23.40;63.00;;;;;;5074271;28;20079;-66
2022/08/01 12:28:00;;;;;;;8.25;1.55;;;23.40;63.10;;;;;;5072892;28;20095;-66
2022/08/01 12:30:26;;;;;;;3.58;0.80;;;23.40;63.10;;;;;;5074262;28;20040;-66
2022/08/01 12:32:53;;;;;;;6.20;1.50;;;23.40;63.10;;;;;;5073869;28;20044;-65
2022/08/01 12:35:22;;;;;;;6.72;1.30;;;23.40;63.10;;;;;;5072266;28;20067;-64
2022/08/01 12:37:49;;;;;;;4.18;1.20;;;23.40;63.50;;;;;;5071488;28;20036;-64
2022/08/01 12:40:31;;;;;;;4.90;1.67;;;23.40;64.00;;;;;;5072424;28;20063;-64
2022/08/01 12:42:59;;;;;;;4.18;1.10;;;23.40;64.40;;;;;;5071352;28;20040;-64
2022/08/01 12:45:28;;;;;;;4.00;1.15;;;23.40;64.40;;;;;;5073665;28;20115;-65
2022/08/01 12:47:54;;;;;;;3.90;1.10;;;23.50;64.50;;;;;;5071777;28;20044;-64
2022/08/01 12:50:22;;;;;;;3.88;1.13;;;23.50;64.50;;;;;;5071203;28;20040;-64
2022/08/01 12:52:48;;;;;;;4.85;1.10;;;23.50;64.60;;;;;;5055223;28;20044;-65